sensor_id;sensor_type;location;lat;lon;timestamp;temperature;humidity
10492;DHT22;5293;51.464;-2.566;2023-04-25T00:00:52;7.60;99.90
10492;DHT22;5293;51.464;-2.566;2023-04-25T00:03:18;7.50;99.90
10492;DHT22;5293;51.464;-2.566;2023-04-25T00:05:44;7.50;99.90
10492;DHT22;5293;51.464;-2.566;2023-04-25T00:08:11;7.50;99.90
10492;DHT22;5293;51.464;-2.566;2023-04-25T00:10:36;7.60;99.90
10492;DHT22;5293;51.464;-2.566;2023-04-25T00:13:02;7.70;99.90
10492;DHT22;5293;51.464;-2.566;2023-04-25T00:15:28;7.60;99.90
10492;DHT22;5293;51.464;-2.566;2023-04-25T00:17:56;7.60;99.90
10492;DHT22;5293;51.464;-2.566;2023-04-25T00:20:22;7.60;99.90
10492;DHT22;5293;51.464;-2.566;2023-04-25T00:22:49;7.80;99.90
10492;DHT22;5293;51.464;-2.566;2023-04-25T00:25:14;7.80;99.90
10492;DHT22;5293;51.464;-2.566;2023-04-25T00:27:40;7.80;99.90
10492;DHT22;5293;51.464;-2.566;2023-04-25T00:30:07;7.70;99.90
10492;DHT22;5293;51.464;-2.566;2023-04-25T00:32:33;7.70;99.90
10492;DHT22;5293;51.464;-2.566;2023-04-25T00:34:59;7.70;99.90
10492;DHT22;5293;51.464;-2.566;2023-04-25T00:37:25;7.70;99.90
10492;DHT22;5293;51.464;-2.566;2023-04-25T00:39:51;7.70;99.90
10492;DHT22;5293;51.464;-2.566;2023-04-25T00:42:19;7.70;99.90
10492;DHT22;5293;51.464;-2.566;2023-04-25T00:44:45;7.70;99.90
10492;DHT22;5293;51.464;-2.566;2023-04-25T00:47:11;7.80;99.90
10492;DHT22;5293;51.464;-2.566;2023-04-25T00:49:36;7.80;99.90
10492;DHT22;5293;51.464;-2.566;2023-04-25T00:52:02;7.90;99.90
10492;DHT22;5293;51.464;-2.566;2023-04-25T00:54:28;7.80;99.90
10492;DHT22;5293;51.464;-2.566;2023-04-25T00:56:53;8.00;99.90
10492;DHT22;5293;51.464;-2.566;2023-04-25T00:59:20;7.90;99.90
10492;DHT22;5293;51.464;-2.566;2023-04-25T01:01:46;7.90;99.90
10492;DHT22;5293;51.464;-2.566;2023-04-25T01:04:13;7.80;99.90
10492;DHT22;5293;51.464;-2.566;2023-04-25T01:06:38;7.80;99.90
10492;DHT22;5293;51.464;-2.566;2023-04-25T01:09:05;7.80;99.90
10492;DHT22;5293;51.464;-2.566;2023-04-25T01:11:31;7.70;99.90
10492;DHT22;5293;51.464;-2.566;2023-04-25T01:13:57;7.60;99.90
10492;DHT22;5293;51.464;-2.566;2023-04-25T01:16:23;7.60;99.90
10492;DHT22;5293;51.464;-2.566;2023-04-25T01:18:52;7.70;99.90
10492;DHT22;5293;51.464;-2.566;2023-04-25T01:21:18;7.70;99.90
10492;DHT22;5293;51.464;-2.566;2023-04-25T01:23:44;7.60;99.90
10492;DHT22;5293;51.464;-2.566;2023-04-25T01:26:11;7.60;99.90
10492;DHT22;5293;51.464;-2.566;2023-04-25T01:28:37;7.70;99.90
10492;DHT22;5293;51.464;-2.566;2023-04-25T01:31:06;7.80;99.90
10492;DHT22;5293;51.464;-2.566;2023-04-25T01:33:32;7.60;99.90
10492;DHT22;5293;51.464;-2.566;2023-04-25T01:35:58;7.60;99.90
10492;DHT22;5293;51.464;-2.566;2023-04-25T01:38:24;7.60;99.90
10492;DHT22;5293;51.464;-2.566;2023-04-25T01:40:51;7.60;99.90
10492;DHT22;5293;51.464;-2.566;2023-04-25T01:43:17;7.60;99.90
10492;DHT22;5293;51.464;-2.566;2023-04-25T01:45:43;7.70;99.90
10492;DHT22;5293;51.464;-2.566;2023-04-25T01:48:10;7.70;99.90
10492;DHT22;5293;51.464;-2.566;2023-04-25T01:50:37;7.70;99.90
10492;DHT22;5293;51.464;-2.566;2023-04-25T01:53:04;7.60;99.90
10492;DHT22;5293;51.464;-2.566;2023-04-25T01:55:30;7.70;99.90
10492;DHT22;5293;51.464;-2.566;2023-04-25T01:57:55;7.80;99.90
10492;DHT22;5293;51.464;-2.566;2023-04-25T02:00:21;7.80;99.90
10492;DHT22;5293;51.464;-2.566;2023-04-25T02:02:47;7.70;99.90
10492;DHT22;5293;51.464;-2.566;2023-04-25T02:05:13;7.70;99.90
10492;DHT22;5293;51.464;-2.566;2023-04-25T02:07:39;7.70;99.90
10492;DHT22;5293;51.464;-2.566;2023-04-25T02:10:05;7.70;99.90
10492;DHT22;5293;51.464;-2.566;2023-04-25T02:12:31;7.70;99.90
10492;DHT22;5293;51.464;-2.566;2023-04-25T02:14:57;7.60;99.90
10492;DHT22;5293;51.464;-2.566;2023-04-25T02:17:23;7.60;99.90
10492;DHT22;5293;51.464;-2.566;2023-04-25T02:19:48;7.50;99.90
10492;DHT22;5293;51.464;-2.566;2023-04-25T02:22:14;7.50;99.90
10492;DHT22;5293;51.464;-2.566;2023-04-25T02:24:40;7.50;99.90
10492;DHT22;5293;51.464;-2.566;2023-04-25T02:27:05;7.50;99.90
10492;DHT22;5293;51.464;-2.566;2023-04-25T02:29:31;7.50;99.90
10492;DHT22;5293;51.464;-2.566;2023-04-25T02:31:57;7.50;99.90
10492;DHT22;5293;51.464;-2.566;2023-04-25T02:34:22;7.50;99.90
10492;DHT22;5293;51.464;-2.566;2023-04-25T02:36:49;7.50;99.90
10492;DHT22;5293;51.464;-2.566;2023-04-25T02:39:17;7.40;99.90
10492;DHT22;5293;51.464;-2.566;2023-04-25T02:41:43;7.40;99.90
10492;DHT22;5293;51.464;-2.566;2023-04-25T02:44:09;7.40;99.90
10492;DHT22;5293;51.464;-2.566;2023-04-25T02:46:35;7.30;99.90
10492;DHT22;5293;51.464;-2.566;2023-04-25T02:49:01;7.40;99.90
10492;DHT22;5293;51.464;-2.566;2023-04-25T02:51:26;7.30;99.90
10492;DHT22;5293;51.464;-2.566;2023-04-25T02:53:52;7.20;99.90
10492;DHT22;5293;51.464;-2.566;2023-04-25T02:56:18;7.20;99.90
10492;DHT22;5293;51.464;-2.566;2023-04-25T02:58:43;7.10;99.90
10492;DHT22;5293;51.464;-2.566;2023-04-25T03:01:09;7.10;99.90
10492;DHT22;5293;51.464;-2.566;2023-04-25T03:03:35;7.00;99.90
10492;DHT22;5293;51.464;-2.566;2023-04-25T03:06:01;6.90;99.90
10492;DHT22;5293;51.464;-2.566;2023-04-25T03:08:26;6.80;99.90
10492;DHT22;5293;51.464;-2.566;2023-04-25T03:10:57;6.80;99.90
10492;DHT22;5293;51.464;-2.566;2023-04-25T03:13:24;6.70;99.90
10492;DHT22;5293;51.464;-2.566;2023-04-25T03:15:49;6.60;99.90
10492;DHT22;5293;51.464;-2.566;2023-04-25T03:18:15;6.50;99.90
10492;DHT22;5293;51.464;-2.566;2023-04-25T03:20:41;6.50;99.90
10492;DHT22;5293;51.464;-2.566;2023-04-25T03:23:07;6.50;99.90
10492;DHT22;5293;51.464;-2.566;2023-04-25T03:25:33;6.60;99.90
10492;DHT22;5293;51.464;-2.566;2023-04-25T03:27:58;6.50;99.90
10492;DHT22;5293;51.464;-2.566;2023-04-25T03:30:24;6.60;99.90
10492;DHT22;5293;51.464;-2.566;2023-04-25T03:32:50;6.50;99.90
10492;DHT22;5293;51.464;-2.566;2023-04-25T03:35:15;6.40;99.90
10492;DHT22;5293;51.464;-2.566;2023-04-25T03:37:41;6.40;99.90
10492;DHT22;5293;51.464;-2.566;2023-04-25T03:40:10;6.40;99.90
10492;DHT22;5293;51.464;-2.566;2023-04-25T03:42:36;6.40;99.90
10492;DHT22;5293;51.464;-2.566;2023-04-25T03:45:02;6.30;99.90
10492;DHT22;5293;51.464;-2.566;2023-04-25T03:47:28;6.40;99.90
10492;DHT22;5293;51.464;-2.566;2023-04-25T03:49:54;6.30;99.90
10492;DHT22;5293;51.464;-2.566;2023-04-25T03:52:20;6.30;99.90
10492;DHT22;5293;51.464;-2.566;2023-04-25T03:54:46;6.30;99.90
10492;DHT22;5293;51.464;-2.566;2023-04-25T03:57:11;6.30;99.90
10492;DHT22;5293;51.464;-2.566;2023-04-25T03:59:37;6.20;99.90
10492;DHT22;5293;51.464;-2.566;2023-04-25T04:02:03;6.20;99.90
10492;DHT22;5293;51.464;-2.566;2023-04-25T04:04:28;6.30;99.90
10492;DHT22;5293;51.464;-2.566;2023-04-25T04:06:54;6.30;99.90
10492;DHT22;5293;51.464;-2.566;2023-04-25T04:09:20;6.20;99.90
10492;DHT22;5293;51.464;-2.566;2023-04-25T04:11:46;6.20;99.90
10492;DHT22;5293;51.464;-2.566;2023-04-25T04:14:12;6.20;99.90
10492;DHT22;5293;51.464;-2.566;2023-04-25T04:16:37;6.10;99.90
10492;DHT22;5293;51.464;-2.566;2023-04-25T04:19:03;6.10;99.90
10492;DHT22;5293;51.464;-2.566;2023-04-25T04:21:29;6.00;99.90
10492;DHT22;5293;51.464;-2.566;2023-04-25T04:23:55;6.00;99.90
10492;DHT22;5293;51.464;-2.566;2023-04-25T04:26:23;6.00;99.90
10492;DHT22;5293;51.464;-2.566;2023-04-25T04:28:51;6.00;99.90
10492;DHT22;5293;51.464;-2.566;2023-04-25T04:31:20;5.90;99.90
10492;DHT22;5293;51.464;-2.566;2023-04-25T04:33:45;5.90;99.90
10492;DHT22;5293;51.464;-2.566;2023-04-25T04:36:11;5.90;99.90
10492;DHT22;5293;51.464;-2.566;2023-04-25T04:38:37;5.90;99.90
10492;DHT22;5293;51.464;-2.566;2023-04-25T04:41:03;5.90;99.90
10492;DHT22;5293;51.464;-2.566;2023-04-25T04:43:29;5.80;99.90
10492;DHT22;5293;51.464;-2.566;2023-04-25T04:45:55;5.80;99.90
10492;DHT22;5293;51.464;-2.566;2023-04-25T04:48:24;5.80;99.90
10492;DHT22;5293;51.464;-2.566;2023-04-25T04:50:50;5.60;99.90
10492;DHT22;5293;51.464;-2.566;2023-04-25T04:53:15;5.50;99.90
10492;DHT22;5293;51.464;-2.566;2023-04-25T04:55:41;5.50;99.90
10492;DHT22;5293;51.464;-2.566;2023-04-25T04:58:07;5.50;99.90
10492;DHT22;5293;51.464;-2.566;2023-04-25T05:00:33;5.50;99.90
10492;DHT22;5293;51.464;-2.566;2023-04-25T05:02:58;5.60;99.90
10492;DHT22;5293;51.464;-2.566;2023-04-25T05:05:24;5.50;99.90
10492;DHT22;5293;51.464;-2.566;2023-04-25T05:07:50;5.50;99.90
10492;DHT22;5293;51.464;-2.566;2023-04-25T05:10:17;5.50;99.90
10492;DHT22;5293;51.464;-2.566;2023-04-25T05:12:43;5.50;99.90
10492;DHT22;5293;51.464;-2.566;2023-04-25T05:15:09;5.50;99.90
10492;DHT22;5293;51.464;-2.566;2023-04-25T05:17:35;5.50;99.90
10492;DHT22;5293;51.464;-2.566;2023-04-25T05:20:00;5.50;99.90
10492;DHT22;5293;51.464;-2.566;2023-04-25T05:22:26;5.40;99.90
10492;DHT22;5293;51.464;-2.566;2023-04-25T05:24:51;5.50;99.90
10492;DHT22;5293;51.464;-2.566;2023-04-25T05:27:18;5.50;99.90
10492;DHT22;5293;51.464;-2.566;2023-04-25T05:29:44;5.50;99.90
10492;DHT22;5293;51.464;-2.566;2023-04-25T05:32:09;5.40;99.90
10492;DHT22;5293;51.464;-2.566;2023-04-25T05:34:35;5.50;99.90
10492;DHT22;5293;51.464;-2.566;2023-04-25T05:37:01;5.50;99.90
10492;DHT22;5293;51.464;-2.566;2023-04-25T05:39:27;5.50;99.90
10492;DHT22;5293;51.464;-2.566;2023-04-25T05:41:53;5.50;99.90
10492;DHT22;5293;51.464;-2.566;2023-04-25T05:44:19;5.50;99.90
10492;DHT22;5293;51.464;-2.566;2023-04-25T05:46:44;5.50;99.90
10492;DHT22;5293;51.464;-2.566;2023-04-25T05:49:10;5.50;99.90
10492;DHT22;5293;51.464;-2.566;2023-04-25T05:51:36;5.50;99.90
10492;DHT22;5293;51.464;-2.566;2023-04-25T05:54:01;5.60;99.90
10492;DHT22;5293;51.464;-2.566;2023-04-25T05:56:27;5.60;99.90
10492;DHT22;5293;51.464;-2.566;2023-04-25T05:58:53;5.80;99.90
10492;DHT22;5293;51.464;-2.566;2023-04-25T06:01:18;5.80;99.90
10492;DHT22;5293;51.464;-2.566;2023-04-25T06:03:44;5.80;99.90
10492;DHT22;5293;51.464;-2.566;2023-04-25T06:06:11;5.80;99.90
10492;DHT22;5293;51.464;-2.566;2023-04-25T06:08:37;6.00;99.90
10492;DHT22;5293;51.464;-2.566;2023-04-25T06:11:03;6.00;99.90
10492;DHT22;5293;51.464;-2.566;2023-04-25T06:13:30;6.00;99.90
10492;DHT22;5293;51.464;-2.566;2023-04-25T06:15:55;6.10;99.90
10492;DHT22;5293;51.464;-2.566;2023-04-25T06:18:21;6.20;99.90
10492;DHT22;5293;51.464;-2.566;2023-04-25T06:20:46;6.30;99.90
10492;DHT22;5293;51.464;-2.566;2023-04-25T06:23:12;6.40;99.90
10492;DHT22;5293;51.464;-2.566;2023-04-25T06:25:38;6.40;99.90
10492;DHT22;5293;51.464;-2.566;2023-04-25T06:28:03;6.60;99.90
10492;DHT22;5293;51.464;-2.566;2023-04-25T06:30:29;6.70;99.90
10492;DHT22;5293;51.464;-2.566;2023-04-25T06:32:55;6.80;99.90
10492;DHT22;5293;51.464;-2.566;2023-04-25T06:35:21;6.80;99.90
10492;DHT22;5293;51.464;-2.566;2023-04-25T06:37:46;6.80;99.90
10492;DHT22;5293;51.464;-2.566;2023-04-25T06:40:12;6.80;99.90
10492;DHT22;5293;51.464;-2.566;2023-04-25T06:42:38;7.00;99.90
10492;DHT22;5293;51.464;-2.566;2023-04-25T06:45:04;7.00;99.90
10492;DHT22;5293;51.464;-2.566;2023-04-25T06:47:29;7.10;99.90
10492;DHT22;5293;51.464;-2.566;2023-04-25T06:49:55;7.30;99.90
10492;DHT22;5293;51.464;-2.566;2023-04-25T06:52:21;7.20;99.90
10492;DHT22;5293;51.464;-2.566;2023-04-25T06:54:47;7.30;99.90
10492;DHT22;5293;51.464;-2.566;2023-04-25T06:57:13;7.30;99.90
10492;DHT22;5293;51.464;-2.566;2023-04-25T06:59:38;7.30;99.90
10492;DHT22;5293;51.464;-2.566;2023-04-25T07:02:05;7.40;99.90
10492;DHT22;5293;51.464;-2.566;2023-04-25T07:04:31;7.30;99.90
10492;DHT22;5293;51.464;-2.566;2023-04-25T07:06:57;7.40;99.90
10492;DHT22;5293;51.464;-2.566;2023-04-25T07:09:22;7.40;99.90
10492;DHT22;5293;51.464;-2.566;2023-04-25T07:11:48;7.50;99.90
10492;DHT22;5293;51.464;-2.566;2023-04-25T07:14:14;7.60;99.90
10492;DHT22;5293;51.464;-2.566;2023-04-25T07:16:40;7.50;99.90
10492;DHT22;5293;51.464;-2.566;2023-04-25T07:19:06;7.60;99.90
10492;DHT22;5293;51.464;-2.566;2023-04-25T07:21:31;7.50;99.90
10492;DHT22;5293;51.464;-2.566;2023-04-25T07:23:58;7.50;99.90
10492;DHT22;5293;51.464;-2.566;2023-04-25T07:26:23;7.50;99.90
10492;DHT22;5293;51.464;-2.566;2023-04-25T07:28:50;7.50;99.90
10492;DHT22;5293;51.464;-2.566;2023-04-25T07:31:17;7.70;99.90
10492;DHT22;5293;51.464;-2.566;2023-04-25T07:33:44;7.60;99.90
10492;DHT22;5293;51.464;-2.566;2023-04-25T07:36:11;7.70;99.90
10492;DHT22;5293;51.464;-2.566;2023-04-25T07:38:36;7.80;99.90
10492;DHT22;5293;51.464;-2.566;2023-04-25T07:41:02;7.80;99.90
10492;DHT22;5293;51.464;-2.566;2023-04-25T07:43:28;7.80;99.90
10492;DHT22;5293;51.464;-2.566;2023-04-25T07:45:53;7.60;99.90
10492;DHT22;5293;51.464;-2.566;2023-04-25T07:48:19;7.70;99.90
10492;DHT22;5293;51.464;-2.566;2023-04-25T07:50:45;7.70;99.90
10492;DHT22;5293;51.464;-2.566;2023-04-25T07:53:11;7.80;99.90
10492;DHT22;5293;51.464;-2.566;2023-04-25T07:55:36;7.80;99.90
10492;DHT22;5293;51.464;-2.566;2023-04-25T07:58:06;8.00;99.90
10492;DHT22;5293;51.464;-2.566;2023-04-25T08:00:31;8.10;99.90
10492;DHT22;5293;51.464;-2.566;2023-04-25T08:02:57;8.20;99.90
10492;DHT22;5293;51.464;-2.566;2023-04-25T08:05:23;8.30;99.90
10492;DHT22;5293;51.464;-2.566;2023-04-25T08:07:48;8.30;99.90
10492;DHT22;5293;51.464;-2.566;2023-04-25T08:10:15;8.40;99.90
10492;DHT22;5293;51.464;-2.566;2023-04-25T08:12:41;8.50;99.90
10492;DHT22;5293;51.464;-2.566;2023-04-25T08:15:07;8.60;99.90
10492;DHT22;5293;51.464;-2.566;2023-04-25T08:17:33;8.80;99.90
10492;DHT22;5293;51.464;-2.566;2023-04-25T08:19:59;8.90;99.90
10492;DHT22;5293;51.464;-2.566;2023-04-25T08:22:24;8.90;99.90
10492;DHT22;5293;51.464;-2.566;2023-04-25T08:24:50;9.00;99.90
10492;DHT22;5293;51.464;-2.566;2023-04-25T08:27:16;8.90;99.90
10492;DHT22;5293;51.464;-2.566;2023-04-25T08:29:42;8.90;99.90
10492;DHT22;5293;51.464;-2.566;2023-04-25T08:32:08;8.90;99.90
10492;DHT22;5293;51.464;-2.566;2023-04-25T08:34:33;9.10;99.90
10492;DHT22;5293;51.464;-2.566;2023-04-25T08:36:59;9.00;99.90
10492;DHT22;5293;51.464;-2.566;2023-04-25T08:39:25;9.00;99.90
10492;DHT22;5293;51.464;-2.566;2023-04-25T08:41:51;9.10;99.90
10492;DHT22;5293;51.464;-2.566;2023-04-25T08:44:19;9.20;99.90
10492;DHT22;5293;51.464;-2.566;2023-04-25T08:46:47;9.30;99.90
10492;DHT22;5293;51.464;-2.566;2023-04-25T08:49:16;9.30;99.90
10492;DHT22;5293;51.464;-2.566;2023-04-25T08:51:47;9.30;99.90
10492;DHT22;5293;51.464;-2.566;2023-04-25T08:54:14;9.50;99.90
10492;DHT22;5293;51.464;-2.566;2023-04-25T08:56:47;9.40;99.90
10492;DHT22;5293;51.464;-2.566;2023-04-25T08:59:13;9.40;99.90
10492;DHT22;5293;51.464;-2.566;2023-04-25T09:01:39;9.50;99.90
10492;DHT22;5293;51.464;-2.566;2023-04-25T09:04:05;9.50;99.90
10492;DHT22;5293;51.464;-2.566;2023-04-25T09:06:31;9.40;99.90
10492;DHT22;5293;51.464;-2.566;2023-04-25T09:09:02;9.60;99.90
10492;DHT22;5293;51.464;-2.566;2023-04-25T09:11:29;9.60;99.90
10492;DHT22;5293;51.464;-2.566;2023-04-25T09:19:23;9.80;99.90
10492;DHT22;5293;51.464;-2.566;2023-04-25T09:21:49;9.80;99.90
10492;DHT22;5293;51.464;-2.566;2023-04-25T09:24:15;9.80;99.90
10492;DHT22;5293;51.464;-2.566;2023-04-25T09:26:41;9.60;99.90
10492;DHT22;5293;51.464;-2.566;2023-04-25T09:29:07;9.60;99.90
10492;DHT22;5293;51.464;-2.566;2023-04-25T09:31:33;9.70;99.90
10492;DHT22;5293;51.464;-2.566;2023-04-25T09:34:02;9.80;99.90
10492;DHT22;5293;51.464;-2.566;2023-04-25T09:36:29;9.80;99.90
10492;DHT22;5293;51.464;-2.566;2023-04-25T09:38:55;9.80;99.90
10492;DHT22;5293;51.464;-2.566;2023-04-25T09:41:24;9.90;99.90
10492;DHT22;5293;51.464;-2.566;2023-04-25T09:43:50;10.00;99.90
10492;DHT22;5293;51.464;-2.566;2023-04-25T09:46:16;10.00;99.90
10492;DHT22;5293;51.464;-2.566;2023-04-25T09:48:49;9.90;99.90
10492;DHT22;5293;51.464;-2.566;2023-04-25T09:51:15;10.00;99.90
10492;DHT22;5293;51.464;-2.566;2023-04-25T09:53:45;10.10;99.90
10492;DHT22;5293;51.464;-2.566;2023-04-25T09:56:12;10.00;99.90
10492;DHT22;5293;51.464;-2.566;2023-04-25T09:58:39;10.20;99.90
10492;DHT22;5293;51.464;-2.566;2023-04-25T10:01:16;10.20;99.90
10492;DHT22;5293;51.464;-2.566;2023-04-25T10:03:43;10.20;99.90
10492;DHT22;5293;51.464;-2.566;2023-04-25T10:06:18;10.30;99.90
10492;DHT22;5293;51.464;-2.566;2023-04-25T10:08:44;10.40;99.90
10492;DHT22;5293;51.464;-2.566;2023-04-25T10:11:12;10.50;99.90
10492;DHT22;5293;51.464;-2.566;2023-04-25T10:13:41;10.50;99.90
10492;DHT22;5293;51.464;-2.566;2023-04-25T10:16:08;10.50;99.90
10492;DHT22;5293;51.464;-2.566;2023-04-25T10:18:34;10.60;99.90
10492;DHT22;5293;51.464;-2.566;2023-04-25T10:21:01;10.70;99.90
10492;DHT22;5293;51.464;-2.566;2023-04-25T10:23:30;10.60;99.90
10492;DHT22;5293;51.464;-2.566;2023-04-25T10:25:56;10.60;99.90
10492;DHT22;5293;51.464;-2.566;2023-04-25T10:28:22;10.50;99.90
10492;DHT22;5293;51.464;-2.566;2023-04-25T10:31:06;10.50;99.90
10492;DHT22;5293;51.464;-2.566;2023-04-25T10:33:43;10.60;99.90
10492;DHT22;5293;51.464;-2.566;2023-04-25T10:36:13;10.50;99.90
10492;DHT22;5293;51.464;-2.566;2023-04-25T10:38:39;10.60;99.90
10492;DHT22;5293;51.464;-2.566;2023-04-25T10:41:09;10.60;99.90
10492;DHT22;5293;51.464;-2.566;2023-04-25T10:43:48;10.60;99.90
10492;DHT22;5293;51.464;-2.566;2023-04-25T10:46:24;10.60;99.90
10492;DHT22;5293;51.464;-2.566;2023-04-25T10:48:53;10.80;99.90
10492;DHT22;5293;51.464;-2.566;2023-04-25T10:51:23;10.90;99.90
10492;DHT22;5293;51.464;-2.566;2023-04-25T10:56:37;10.70;99.90
10492;DHT22;5293;51.464;-2.566;2023-04-25T10:59:25;10.60;99.90
10492;DHT22;5293;51.464;-2.566;2023-04-25T11:01:53;10.60;99.90
10492;DHT22;5293;51.464;-2.566;2023-04-25T11:04:33;10.80;99.90
10492;DHT22;5293;51.464;-2.566;2023-04-25T11:07:28;10.90;99.90
10492;DHT22;5293;51.464;-2.566;2023-04-25T11:09:57;10.90;99.90
10492;DHT22;5293;51.464;-2.566;2023-04-25T11:12:26;11.00;99.90
10492;DHT22;5293;51.464;-2.566;2023-04-25T11:15:01;11.10;99.90
10492;DHT22;5293;51.464;-2.566;2023-04-25T11:17:28;11.30;99.90
10492;DHT22;5293;51.464;-2.566;2023-04-25T11:19:54;11.10;99.90
10492;DHT22;5293;51.464;-2.566;2023-04-25T11:22:21;11.20;99.90
10492;DHT22;5293;51.464;-2.566;2023-04-25T11:24:47;11.30;99.90
10492;DHT22;5293;51.464;-2.566;2023-04-25T11:27:13;11.30;99.90
10492;DHT22;5293;51.464;-2.566;2023-04-25T11:29:38;11.30;99.90
10492;DHT22;5293;51.464;-2.566;2023-04-25T11:32:04;11.30;99.90
10492;DHT22;5293;51.464;-2.566;2023-04-25T11:34:31;11.40;99.90
10492;DHT22;5293;51.464;-2.566;2023-04-25T11:36:59;11.20;99.90
10492;DHT22;5293;51.464;-2.566;2023-04-25T11:39:25;11.30;99.90
10492;DHT22;5293;51.464;-2.566;2023-04-25T11:41:52;11.10;99.90
10492;DHT22;5293;51.464;-2.566;2023-04-25T11:44:18;10.90;99.90
10492;DHT22;5293;51.464;-2.566;2023-04-25T11:46:45;10.80;99.90
10492;DHT22;5293;51.464;-2.566;2023-04-25T11:49:11;10.80;99.90
10492;DHT22;5293;51.464;-2.566;2023-04-25T11:51:47;10.90;99.90
10492;DHT22;5293;51.464;-2.566;2023-04-25T11:54:14;10.80;99.90
10492;DHT22;5293;51.464;-2.566;2023-04-25T11:56:44;10.80;99.90
10492;DHT22;5293;51.464;-2.566;2023-04-25T11:59:10;10.80;99.90
10492;DHT22;5293;51.464;-2.566;2023-04-25T12:01:38;10.80;99.90
10492;DHT22;5293;51.464;-2.566;2023-04-25T12:04:15;11.00;99.90
10492;DHT22;5293;51.464;-2.566;2023-04-25T12:06:41;11.20;99.90
10492;DHT22;5293;51.464;-2.566;2023-04-25T12:09:10;11.40;99.90
10492;DHT22;5293;51.464;-2.566;2023-04-25T12:11:43;11.60;99.90
10492;DHT22;5293;51.464;-2.566;2023-04-25T12:14:10;11.90;99.90
10492;DHT22;5293;51.464;-2.566;2023-04-25T12:16:46;12.00;99.90
10492;DHT22;5293;51.464;-2.566;2023-04-25T12:19:19;12.00;99.90
10492;DHT22;5293;51.464;-2.566;2023-04-25T12:21:45;12.10;99.90
10492;DHT22;5293;51.464;-2.566;2023-04-25T12:24:16;12.20;99.90
10492;DHT22;5293;51.464;-2.566;2023-04-25T12:27:01;12.20;99.90
10492;DHT22;5293;51.464;-2.566;2023-04-25T12:29:29;12.10;99.90
10492;DHT22;5293;51.464;-2.566;2023-04-25T12:31:55;12.10;99.90
10492;DHT22;5293;51.464;-2.566;2023-04-25T12:34:22;11.90;99.90
10492;DHT22;5293;51.464;-2.566;2023-04-25T12:36:49;12.00;99.90
10492;DHT22;5293;51.464;-2.566;2023-04-25T12:39:24;12.00;99.90
10492;DHT22;5293;51.464;-2.566;2023-04-25T12:41:51;12.10;99.90
10492;DHT22;5293;51.464;-2.566;2023-04-25T12:44:20;12.30;99.90
10492;DHT22;5293;51.464;-2.566;2023-04-25T12:46:46;12.30;99.90
10492;DHT22;5293;51.464;-2.566;2023-04-25T12:49:12;12.20;99.90
10492;DHT22;5293;51.464;-2.566;2023-04-25T12:51:38;12.40;99.90
10492;DHT22;5293;51.464;-2.566;2023-04-25T12:54:05;12.50;99.90
10492;DHT22;5293;51.464;-2.566;2023-04-25T12:56:31;12.60;99.90
10492;DHT22;5293;51.464;-2.566;2023-04-25T12:58:58;12.90;99.90
10492;DHT22;5293;51.464;-2.566;2023-04-25T13:01:24;13.10;99.90
10492;DHT22;5293;51.464;-2.566;2023-04-25T13:03:50;12.90;99.90
10492;DHT22;5293;51.464;-2.566;2023-04-25T13:06:16;12.80;99.90
10492;DHT22;5293;51.464;-2.566;2023-04-25T13:08:42;12.60;99.90
10492;DHT22;5293;51.464;-2.566;2023-04-25T13:11:08;12.70;99.90
10492;DHT22;5293;51.464;-2.566;2023-04-25T13:13:34;12.90;99.90
10492;DHT22;5293;51.464;-2.566;2023-04-25T13:16:04;12.90;99.90
10492;DHT22;5293;51.464;-2.566;2023-04-25T13:18:30;12.60;99.90
10492;DHT22;5293;51.464;-2.566;2023-04-25T13:20:57;12.90;99.90
10492;DHT22;5293;51.464;-2.566;2023-04-25T13:23:24;12.80;99.90
10492;DHT22;5293;51.464;-2.566;2023-04-25T13:25:50;12.70;99.90
10492;DHT22;5293;51.464;-2.566;2023-04-25T13:28:16;12.60;99.90
10492;DHT22;5293;51.464;-2.566;2023-04-25T13:30:42;12.50;99.90
10492;DHT22;5293;51.464;-2.566;2023-04-25T13:33:07;12.60;99.90
10492;DHT22;5293;51.464;-2.566;2023-04-25T13:35:34;12.50;99.90
10492;DHT22;5293;51.464;-2.566;2023-04-25T13:38:00;12.60;99.90
10492;DHT22;5293;51.464;-2.566;2023-04-25T13:40:26;12.50;99.90
10492;DHT22;5293;51.464;-2.566;2023-04-25T13:42:52;12.80;99.90
10492;DHT22;5293;51.464;-2.566;2023-04-25T13:45:19;12.90;99.90
10492;DHT22;5293;51.464;-2.566;2023-04-25T13:47:45;12.70;99.90
10492;DHT22;5293;51.464;-2.566;2023-04-25T13:50:11;12.80;99.90
10492;DHT22;5293;51.464;-2.566;2023-04-25T13:52:37;12.90;99.90
10492;DHT22;5293;51.464;-2.566;2023-04-25T13:55:03;13.00;99.90
10492;DHT22;5293;51.464;-2.566;2023-04-25T13:57:32;13.00;99.90
10492;DHT22;5293;51.464;-2.566;2023-04-25T13:59:57;12.90;99.90
10492;DHT22;5293;51.464;-2.566;2023-04-25T14:02:23;12.80;99.90
10492;DHT22;5293;51.464;-2.566;2023-04-25T14:04:48;12.80;99.90
10492;DHT22;5293;51.464;-2.566;2023-04-25T14:07:15;13.10;99.90
10492;DHT22;5293;51.464;-2.566;2023-04-25T14:09:43;13.00;99.90
10492;DHT22;5293;51.464;-2.566;2023-04-25T14:12:09;12.90;99.90
10492;DHT22;5293;51.464;-2.566;2023-04-25T14:14:36;12.80;99.90
10492;DHT22;5293;51.464;-2.566;2023-04-25T14:17:02;12.60;99.90
10492;DHT22;5293;51.464;-2.566;2023-04-25T14:19:28;12.50;99.90
10492;DHT22;5293;51.464;-2.566;2023-04-25T14:21:54;12.60;99.90
10492;DHT22;5293;51.464;-2.566;2023-04-25T14:24:20;12.60;99.90
10492;DHT22;5293;51.464;-2.566;2023-04-25T14:26:46;12.60;99.90
10492;DHT22;5293;51.464;-2.566;2023-04-25T14:29:12;12.60;99.90
10492;DHT22;5293;51.464;-2.566;2023-04-25T14:31:38;12.50;99.90
10492;DHT22;5293;51.464;-2.566;2023-04-25T14:34:07;12.50;99.90
10492;DHT22;5293;51.464;-2.566;2023-04-25T14:36:33;12.60;99.90
10492;DHT22;5293;51.464;-2.566;2023-04-25T14:38:59;12.60;99.90
10492;DHT22;5293;51.464;-2.566;2023-04-25T14:41:25;12.40;99.90
10492;DHT22;5293;51.464;-2.566;2023-04-25T14:43:52;12.30;99.90
10492;DHT22;5293;51.464;-2.566;2023-04-25T14:46:19;12.30;99.90
10492;DHT22;5293;51.464;-2.566;2023-04-25T14:48:45;12.40;99.90
10492;DHT22;5293;51.464;-2.566;2023-04-25T14:51:11;12.50;99.90
10492;DHT22;5293;51.464;-2.566;2023-04-25T14:53:36;12.70;99.90
10492;DHT22;5293;51.464;-2.566;2023-04-25T14:56:02;12.70;99.90
10492;DHT22;5293;51.464;-2.566;2023-04-25T14:58:28;12.60;99.90
10492;DHT22;5293;51.464;-2.566;2023-04-25T15:00:54;12.60;99.90
10492;DHT22;5293;51.464;-2.566;2023-04-25T15:03:20;12.80;99.90
10492;DHT22;5293;51.464;-2.566;2023-04-25T15:05:45;12.80;99.90
10492;DHT22;5293;51.464;-2.566;2023-04-25T15:08:11;12.90;99.90
10492;DHT22;5293;51.464;-2.566;2023-04-25T15:10:37;13.00;99.90
10492;DHT22;5293;51.464;-2.566;2023-04-25T15:13:03;13.00;99.90
10492;DHT22;5293;51.464;-2.566;2023-04-25T15:15:29;13.20;99.90
10492;DHT22;5293;51.464;-2.566;2023-04-25T15:17:56;13.10;99.90
10492;DHT22;5293;51.464;-2.566;2023-04-25T15:20:22;13.10;99.90
10492;DHT22;5293;51.464;-2.566;2023-04-25T15:22:48;12.80;99.90
10492;DHT22;5293;51.464;-2.566;2023-04-25T15:25:14;12.80;99.90
10492;DHT22;5293;51.464;-2.566;2023-04-25T15:27:43;12.70;99.90
10492;DHT22;5293;51.464;-2.566;2023-04-25T15:30:13;12.60;99.90
10492;DHT22;5293;51.464;-2.566;2023-04-25T15:32:43;12.80;99.90
10492;DHT22;5293;51.464;-2.566;2023-04-25T15:35:09;12.80;99.90
10492;DHT22;5293;51.464;-2.566;2023-04-25T15:37:35;12.90;99.90
10492;DHT22;5293;51.464;-2.566;2023-04-25T15:40:02;12.90;99.90
10492;DHT22;5293;51.464;-2.566;2023-04-25T15:42:36;12.90;99.90
10492;DHT22;5293;51.464;-2.566;2023-04-25T15:45:06;12.80;99.90